createdAt,value
2019-02-27T00:00:04.497Z,0.00
2019-02-27T00:01:02.985Z,0.00
2019-02-27T00:02:56.714Z,0.00
2019-02-27T00:03:55.883Z,0.00
2019-02-27T00:05:48.804Z,0.00
2019-02-27T00:06:48.823Z,0.00
2019-02-27T00:08:41.744Z,0.00
2019-02-27T00:09:41.717Z,0.00
2019-02-27T00:11:34.690Z,0.00
2019-02-27T00:12:34.639Z,0.00
2019-02-27T00:14:28.844Z,0.00
2019-02-27T00:15:27.557Z,0.00
2019-02-27T00:17:20.526Z,0.00
2019-02-27T00:18:23.787Z,0.00
2019-02-27T00:20:13.344Z,0.00
2019-02-27T00:21:13.349Z,0.00
2019-02-27T00:23:06.250Z,0.00
2019-02-27T00:24:06.274Z,0.00
2019-02-27T00:25:59.151Z,0.00
2019-02-27T00:26:59.162Z,0.00
2019-02-27T00:28:55.981Z,0.00
2019-02-27T00:29:52.088Z,0.00
2019-02-27T00:31:46.075Z,0.00
2019-02-27T00:32:44.983Z,0.00
2019-02-27T00:34:37.877Z,0.00
2019-02-27T00:35:39.562Z,0.00
2019-02-27T00:37:30.826Z,0.00
2019-02-27T00:38:31.335Z,0.00
2019-02-27T00:40:23.681Z,0.00
2019-02-27T00:41:23.719Z,0.00
2019-02-27T00:43:16.666Z,0.00
2019-02-27T00:44:16.602Z,0.00
2019-02-27T00:46:10.746Z,0.00
2019-02-27T00:47:09.995Z,0.00
2019-02-27T00:49:02.961Z,0.00
2019-02-27T00:50:05.793Z,0.00
2019-02-27T00:51:55.824Z,0.00
2019-02-27T00:52:55.808Z,0.00
2019-02-27T00:54:48.707Z,0.00
2019-02-27T00:55:48.718Z,0.00
2019-02-27T00:57:41.659Z,0.00
2019-02-27T00:58:41.599Z,0.00
2019-02-27T01:00:39.101Z,0.00
2019-02-27T01:01:34.532Z,0.00
2019-02-27T01:03:27.456Z,0.00
2019-02-27T01:04:27.426Z,0.00
2019-02-27T01:06:20.309Z,0.00
2019-02-27T01:07:21.335Z,0.00
2019-02-27T01:09:14.279Z,0.00
2019-02-27T01:10:13.240Z,0.00
2019-02-27T01:12:06.186Z,0.00
2019-02-27T01:13:06.123Z,0.00
2019-02-27T01:14:59.025Z,0.00
2019-02-27T01:15:59.038Z,0.00
2019-02-27T01:17:51.962Z,0.00
2019-02-27T01:18:51.939Z,0.00
2019-02-27T01:20:46.496Z,0.00
2019-02-27T01:21:44.838Z,0.00
2019-02-27T01:23:37.785Z,0.00
2019-02-27T01:24:37.760Z,0.00
2019-02-27T01:26:31.393Z,0.00
2019-02-27T01:27:30.652Z,0.00
2019-02-27T01:29:23.595Z,0.00
2019-02-27T01:30:24.423Z,0.00
2019-02-27T01:32:16.514Z,0.00
2019-02-27T01:33:16.426Z,0.00
2019-02-27T01:35:10.339Z,0.00
2019-02-27T01:36:10.349Z,0.00
2019-02-27T01:38:05.386Z,0.00
2019-02-27T01:39:03.816Z,0.00
2019-02-27T01:40:56.147Z,0.00
2019-02-27T01:41:57.950Z,0.00
2019-02-27T01:43:49.153Z,0.00
2019-02-27T01:44:49.084Z,0.00
2019-02-27T01:46:42.447Z,0.00
2019-02-27T01:47:42.456Z,0.00
2019-02-27T01:49:35.405Z,0.00
2019-02-27T01:50:35.365Z,0.00
2019-02-27T01:52:28.304Z,0.00
2019-02-27T01:53:28.257Z,0.00
2019-02-27T01:55:22.439Z,0.00
2019-02-27T01:56:21.196Z,0.00
2019-02-27T01:58:14.131Z,0.00
2019-02-27T01:59:16.719Z,0.00
2019-02-27T02:01:07.555Z,0.00
2019-02-27T02:02:07.023Z,0.00
2019-02-27T02:03:59.989Z,0.00
2019-02-27T02:04:59.919Z,0.00
2019-02-27T02:06:52.826Z,0.00
2019-02-27T02:07:52.792Z,0.00
2019-02-27T02:09:46.776Z,0.00
2019-02-27T02:10:46.202Z,0.00
2019-02-27T02:12:41.591Z,0.00
2019-02-27T02:13:39.124Z,0.00
2019-02-27T02:15:32.016Z,0.00
2019-02-27T02:16:34.129Z,0.00
2019-02-27T02:18:24.953Z,0.00
2019-02-27T02:19:24.919Z,0.00
2019-02-27T02:21:17.821Z,0.00
2019-02-27T02:22:17.822Z,0.00
2019-02-27T02:24:11.299Z,0.00
2019-02-27T02:25:11.242Z,0.00
2019-02-27T02:27:07.748Z,0.00
2019-02-27T02:28:04.129Z,0.00
2019-02-27T02:29:57.061Z,0.00
2019-02-27T02:30:57.028Z,0.00
2019-02-27T02:32:52.406Z,0.00
2019-02-27T02:33:49.942Z,0.00
2019-02-27T02:35:42.823Z,0.00
2019-02-27T02:36:42.843Z,0.00
2019-02-27T02:38:35.766Z,0.00
2019-02-27T02:39:35.726Z,0.00
2019-02-27T02:41:28.604Z,0.00
2019-02-27T02:42:28.639Z,0.00
2019-02-27T02:44:22.084Z,0.00
2019-02-27T02:45:21.531Z,0.00
2019-02-27T02:47:19.989Z,0.00
2019-02-27T02:48:14.465Z,0.00
2019-02-27T02:50:07.385Z,0.00
2019-02-27T02:51:07.351Z,0.00
2019-02-27T02:53:00.297Z,0.00
2019-02-27T02:54:02.070Z,0.00
2019-02-27T02:55:53.151Z,0.00
2019-02-27T02:56:53.166Z,0.00
2019-02-27T02:58:48.404Z,0.00
2019-02-27T02:59:46.074Z,0.00
2019-02-27T03:01:38.931Z,0.00
2019-02-27T03:02:38.952Z,0.00
2019-02-27T03:04:31.872Z,0.00
2019-02-27T03:05:31.829Z,0.00
2019-02-27T03:07:24.736Z,0.00
2019-02-27T03:08:24.736Z,0.00
2019-02-27T03:10:17.626Z,0.00
2019-02-27T03:11:19.034Z,0.00
2019-02-27T03:13:10.546Z,0.00
2019-02-27T03:14:16.941Z,0.00
2019-02-27T03:16:04.638Z,0.00
2019-02-27T03:17:03.447Z,0.00
2019-02-27T03:18:56.328Z,0.00
2019-02-27T03:19:56.367Z,0.00
2019-02-27T03:21:49.220Z,0.00
2019-02-27T03:22:49.232Z,0.00
2019-02-27T03:24:42.135Z,0.00
2019-02-27T03:25:42.129Z,0.00
2019-02-27T03:27:35.570Z,0.00
2019-02-27T03:28:40.663Z,0.00
2019-02-27T03:30:34.763Z,0.00
2019-02-27T03:31:28.482Z,0.00
2019-02-27T03:33:24.723Z,0.00
2019-02-27T03:34:21.387Z,0.00
2019-02-27T03:36:14.283Z,0.00
2019-02-27T03:37:14.364Z,0.00
2019-02-27T03:39:07.185Z,0.00
2019-02-27T03:40:10.624Z,0.00
2019-02-27T03:42:00.080Z,0.00
2019-02-27T03:43:00.086Z,0.00
2019-02-27T03:44:55.814Z,0.00
2019-02-27T03:45:52.992Z,0.00
2019-02-27T03:47:51.663Z,0.00
2019-02-27T03:48:45.888Z,0.00
2019-02-27T03:50:38.787Z,0.00
2019-02-27T03:51:38.793Z,0.00
2019-02-27T03:53:31.681Z,0.00
2019-02-27T03:54:31.690Z,0.00
2019-02-27T03:56:25.085Z,0.00
2019-02-27T03:57:25.088Z,0.00
2019-02-27T03:59:17.990Z,0.00
2019-02-27T04:00:19.291Z,0.00
2019-02-27T04:02:10.880Z,0.00
2019-02-27T04:03:16.911Z,0.00
2019-02-27T04:05:06.869Z,0.00
2019-02-27T04:06:03.790Z,0.00
2019-02-27T04:07:56.720Z,0.00
2019-02-27T04:08:56.717Z,0.00
2019-02-27T04:10:49.612Z,0.00
2019-02-27T04:11:49.593Z,0.00
2019-02-27T04:13:42.481Z,0.00
2019-02-27T04:14:42.502Z,0.00
2019-02-27T04:16:37.897Z,0.00
2019-02-27T04:17:35.387Z,0.00
2019-02-27T04:19:28.284Z,0.00
2019-02-27T04:20:28.284Z,0.00
2019-02-27T04:22:21.670Z,0.00
2019-02-27T04:23:21.679Z,0.00
2019-02-27T04:25:14.578Z,0.00
2019-02-27T04:26:14.579Z,0.00
2019-02-27T04:28:07.470Z,0.00
2019-02-27T04:29:08.485Z,0.00
2019-02-27T04:31:00.393Z,0.00
2019-02-27T04:32:00.378Z,0.00
2019-02-27T04:33:53.273Z,0.00
2019-02-27T04:34:53.287Z,0.00
2019-02-27T04:36:47.169Z,0.00
2019-02-27T04:37:46.186Z,0.00
2019-02-27T04:39:39.084Z,0.00
2019-02-27T04:40:39.086Z,0.00
2019-02-27T04:42:31.981Z,0.00
2019-02-27T04:43:32.754Z,0.00
2019-02-27T04:45:24.891Z,0.00
2019-02-27T04:46:24.882Z,0.00
2019-02-27T04:48:17.798Z,0.00
2019-02-27T04:49:17.783Z,0.00
2019-02-27T04:51:10.686Z,0.00
2019-02-27T04:52:10.681Z,0.00
2019-02-27T04:54:06.126Z,0.00
2019-02-27T04:55:03.588Z,0.00
2019-02-27T04:56:57.597Z,0.00
2019-02-27T04:57:56.486Z,0.00
2019-02-27T04:59:52.342Z,0.00
2019-02-27T05:00:49.389Z,0.00
2019-02-27T05:02:42.286Z,0.00
2019-02-27T05:03:42.288Z,0.00
2019-02-27T05:05:35.217Z,0.00
2019-02-27T05:06:35.193Z,0.00
2019-02-27T05:08:28.285Z,0.00
2019-02-27T05:09:28.294Z,0.00
2019-02-27T05:11:21.198Z,0.00
2019-02-27T05:12:21.194Z,0.00
2019-02-27T05:14:14.090Z,0.00
2019-02-27T05:15:14.109Z,0.00
2019-02-27T05:17:06.996Z,0.00
2019-02-27T05:18:07.008Z,0.00
2019-02-27T05:19:59.895Z,0.00
2019-02-27T05:20:59.894Z,0.00
2019-02-27T05:22:52.786Z,0.00
2019-02-27T05:23:52.807Z,0.00
2019-02-27T05:25:45.707Z,0.00
2019-02-27T05:26:45.698Z,0.00
2019-02-27T05:28:38.595Z,0.00
2019-02-27T05:29:38.596Z,0.00
2019-02-27T05:31:31.501Z,0.00
2019-02-27T05:32:31.498Z,0.00
2019-02-27T05:34:24.436Z,0.00
2019-02-27T05:35:24.474Z,0.00
2019-02-27T05:37:17.331Z,0.00
2019-02-27T05:38:17.345Z,0.00
2019-02-27T05:40:10.237Z,0.00
2019-02-27T05:41:10.248Z,0.00
2019-02-27T05:43:03.128Z,0.00
2019-02-27T05:44:03.133Z,0.00
2019-02-27T05:45:56.035Z,0.00
2019-02-27T05:46:56.032Z,0.00
2019-02-27T05:48:50.852Z,0.00
2019-02-27T05:49:48.942Z,0.00
2019-02-27T05:51:41.831Z,0.00
2019-02-27T05:52:41.843Z,0.00
2019-02-27T05:54:34.726Z,0.00
2019-02-27T05:55:38.995Z,0.00
2019-02-27T05:57:27.628Z,0.00
2019-02-27T05:58:27.632Z,0.00
2019-02-27T06:00:20.555Z,0.00
2019-02-27T06:01:20.542Z,0.00
2019-02-27T06:03:15.931Z,0.00
2019-02-27T06:04:13.462Z,0.00
2019-02-27T06:06:06.843Z,0.00
2019-02-27T06:07:06.350Z,0.00
2019-02-27T06:08:59.241Z,0.00
2019-02-27T06:09:59.301Z,5.63
2019-02-27T06:11:52.140Z,5.63
2019-02-27T06:12:52.140Z,5.63
2019-02-27T06:14:45.038Z,5.63
2019-02-27T06:15:45.043Z,5.63
2019-02-27T06:17:43.365Z,11.25
2019-02-27T06:18:38.440Z,11.25
2019-02-27T06:20:31.342Z,11.25
2019-02-27T06:21:31.338Z,11.25
2019-02-27T06:23:24.228Z,16.88
2019-02-27T06:24:24.239Z,16.88
2019-02-27T06:26:17.147Z,22.50
2019-02-27T06:27:17.142Z,22.50
2019-02-27T06:29:10.031Z,22.50
2019-02-27T06:30:10.039Z,22.50
2019-02-27T06:32:02.943Z,28.13
2019-02-27T06:33:02.945Z,28.13
2019-02-27T06:34:59.071Z,33.75
2019-02-27T06:35:55.843Z,33.75
2019-02-27T06:37:50.855Z,33.75
2019-02-27T06:38:48.756Z,39.38
2019-02-27T06:40:42.870Z,39.38
2019-02-27T06:41:41.713Z,39.38
2019-02-27T06:43:34.573Z,45.00
2019-02-27T06:44:36.661Z,45.00
2019-02-27T06:46:27.477Z,45.00
2019-02-27T06:47:27.519Z,50.63
2019-02-27T06:49:20.363Z,50.63
2019-02-27T06:50:20.379Z,50.63
2019-02-27T06:52:13.286Z,56.25
2019-02-27T06:53:16.502Z,56.25
2019-02-27T06:55:06.244Z,61.88
2019-02-27T06:56:06.182Z,61.88
2019-02-27T06:57:59.079Z,61.88
2019-02-27T06:58:59.080Z,67.50
2019-02-27T07:00:51.973Z,67.50
2019-02-27T07:01:51.979Z,67.50
2019-02-27T07:03:44.881Z,67.50
2019-02-27T07:04:44.878Z,73.13
2019-02-27T07:06:38.270Z,73.13
2019-02-27T07:07:38.273Z,73.13
2019-02-27T07:09:31.166Z,78.75
2019-02-27T07:10:31.171Z,78.75
2019-02-27T07:12:24.078Z,95.63
2019-02-27T07:13:26.836Z,84.38
2019-02-27T07:15:16.972Z,95.63
2019-02-27T07:16:16.981Z,95.63
2019-02-27T07:18:11.874Z,84.38
2019-02-27T07:19:10.374Z,84.38
2019-02-27T07:21:03.279Z,90.00
2019-02-27T07:22:03.282Z,90.00
2019-02-27T07:23:58.519Z,90.00
2019-02-27T07:24:56.176Z,90.00
2019-02-27T07:26:50.124Z,95.63
2019-02-27T07:27:49.090Z,95.63
2019-02-27T07:29:42.881Z,95.63
2019-02-27T07:30:42.502Z,95.63
2019-02-27T07:32:34.895Z,95.63
2019-02-27T07:33:34.899Z,101.25
2019-02-27T07:35:29.263Z,101.25
2019-02-27T07:36:27.795Z,101.25
2019-02-27T07:38:21.656Z,101.25
2019-02-27T07:39:20.701Z,101.25
2019-02-27T07:41:17.516Z,101.25
2019-02-27T07:42:14.607Z,101.25
2019-02-27T07:44:07.508Z,106.88
2019-02-27T07:45:08.122Z,106.88
2019-02-27T07:47:00.410Z,106.88
2019-02-27T07:48:00.411Z,106.88
2019-02-27T07:49:54.320Z,106.88
2019-02-27T07:50:54.311Z,106.88
2019-02-27T07:52:47.235Z,112.50
2019-02-27T07:53:47.232Z,112.50
2019-02-27T07:55:40.132Z,112.50
2019-02-27T07:56:40.136Z,112.50
2019-02-27T07:58:34.488Z,112.50
2019-02-27T07:59:33.039Z,112.50
2019-02-27T08:01:26.433Z,112.50
2019-02-27T08:02:26.436Z,112.50
2019-02-27T08:04:22.103Z,118.13
2019-02-27T08:05:19.340Z,118.13
2019-02-27T08:07:13.040Z,118.13
2019-02-27T08:08:12.243Z,118.13
2019-02-27T08:10:05.140Z,118.13
2019-02-27T08:11:05.153Z,118.13
2019-02-27T08:12:58.047Z,118.13
2019-02-27T08:13:58.049Z,118.13
2019-02-27T08:15:50.955Z,118.13
2019-02-27T08:16:50.961Z,118.13
2019-02-27T08:18:43.866Z,118.13
2019-02-27T08:19:45.344Z,118.13
2019-02-27T08:21:36.767Z,123.75
2019-02-27T08:22:36.774Z,123.75
2019-02-27T08:24:29.678Z,123.75
2019-02-27T08:25:29.675Z,123.75
2019-02-27T08:27:22.585Z,123.75
2019-02-27T08:28:22.583Z,123.75
2019-02-27T08:30:15.478Z,123.75
2019-02-27T08:31:15.493Z,123.75
2019-02-27T08:33:09.064Z,123.75
2019-02-27T08:34:08.548Z,123.75
2019-02-27T08:36:01.440Z,123.75
2019-02-27T08:37:01.457Z,123.75
2019-02-27T08:38:54.371Z,129.38
2019-02-27T08:39:54.366Z,129.38
2019-02-27T08:41:47.286Z,129.38
2019-02-27T08:42:47.274Z,129.38
2019-02-27T08:44:40.192Z,129.38
2019-02-27T08:45:40.186Z,129.38
2019-02-27T08:47:33.674Z,129.38
2019-02-27T08:48:33.093Z,129.38
2019-02-27T08:50:25.990Z,129.38
2019-02-27T08:51:26.005Z,129.38
2019-02-27T08:53:18.906Z,129.38
2019-02-27T08:54:18.909Z,129.38
2019-02-27T08:56:12.400Z,129.38
2019-02-27T08:57:11.822Z,129.38
2019-02-27T08:59:05.784Z,129.38
2019-02-27T09:00:04.732Z,129.38
2019-02-27T09:01:57.626Z,129.38
2019-02-27T09:03:02.411Z,129.38
2019-02-27T09:04:50.546Z,129.38
2019-02-27T09:05:51.024Z,129.38
2019-02-27T09:07:43.473Z,129.38
2019-02-27T09:08:44.290Z,129.38
2019-02-27T09:10:36.358Z,129.38
2019-02-27T09:11:37.172Z,129.38
2019-02-27T09:13:29.282Z,129.38
2019-02-27T09:14:29.278Z,129.38
2019-02-27T09:16:26.046Z,129.38
2019-02-27T09:17:26.890Z,129.38
2019-02-27T09:19:16.091Z,129.38
2019-02-27T09:20:19.519Z,129.38
2019-02-27T09:22:09.000Z,129.38
2019-02-27T09:23:09.003Z,129.38
2019-02-27T09:25:01.911Z,129.38
2019-02-27T09:26:02.809Z,129.38
2019-02-27T09:27:54.826Z,129.38
2019-02-27T09:28:54.829Z,129.38
2019-02-27T09:30:47.727Z,129.38
2019-02-27T09:31:50.675Z,129.38
2019-02-27T09:33:41.645Z,129.38
2019-02-27T09:34:41.653Z,129.38
2019-02-27T09:36:34.544Z,129.38
2019-02-27T09:37:34.557Z,129.38
2019-02-27T09:39:30.643Z,129.38
2019-02-27T09:40:29.410Z,129.38
2019-02-27T09:42:20.373Z,129.38
2019-02-27T09:43:20.385Z,129.38
2019-02-27T09:45:13.787Z,129.38
2019-02-27T09:46:13.791Z,129.38
2019-02-27T09:48:06.691Z,129.38
2019-02-27T09:49:07.066Z,129.38
2019-02-27T09:51:01.096Z,129.38
2019-02-27T09:52:01.107Z,129.38
2019-02-27T09:53:54.014Z,129.38
2019-02-27T09:54:54.877Z,129.38
2019-02-27T09:56:46.925Z,129.38
2019-02-27T09:57:46.936Z,129.38
2019-02-27T09:59:40.065Z,129.38
2019-02-27T10:00:39.852Z,129.38
2019-02-27T10:02:32.751Z,129.38
2019-02-27T10:03:32.970Z,129.38
2019-02-27T10:05:25.673Z,129.38
2019-02-27T10:06:25.678Z,129.38
2019-02-27T10:08:18.587Z,129.38
2019-02-27T10:09:18.597Z,129.38
2019-02-27T10:11:11.495Z,129.38
2019-02-27T10:12:11.509Z,129.38
2019-02-27T10:14:04.418Z,129.38
2019-02-27T10:15:04.420Z,129.38
2019-02-27T10:16:57.324Z,129.38
2019-02-27T10:17:57.334Z,129.38
2019-02-27T10:19:50.238Z,129.38
2019-02-27T10:20:50.257Z,129.38
2019-02-27T10:22:43.154Z,129.38
2019-02-27T10:23:43.166Z,129.38
2019-02-27T10:25:36.079Z,129.38
2019-02-27T10:26:36.084Z,129.38
2019-02-27T10:28:29.486Z,129.38
2019-02-27T10:29:29.493Z,129.38
2019-02-27T10:31:22.402Z,129.38
2019-02-27T10:32:22.410Z,129.38
2019-02-27T10:34:17.589Z,129.38
2019-02-27T10:35:15.334Z,129.38
2019-02-27T10:37:12.876Z,129.38
2019-02-27T10:38:08.252Z,129.38
2019-02-27T10:40:01.171Z,129.38
2019-02-27T10:41:01.168Z,129.38
2019-02-27T10:42:54.070Z,129.38
2019-02-27T10:43:56.494Z,129.38
2019-02-27T10:45:49.277Z,129.38
2019-02-27T10:46:46.999Z,129.38
2019-02-27T10:48:39.916Z,129.38
2019-02-27T10:49:39.922Z,129.38
2019-02-27T10:51:32.830Z,129.38
2019-02-27T10:52:32.845Z,129.38
2019-02-27T10:54:25.753Z,129.38
2019-02-27T10:55:26.966Z,129.38
2019-02-27T10:57:18.668Z,129.38
2019-02-27T10:58:18.685Z,129.38
2019-02-27T11:00:11.594Z,129.38
2019-02-27T11:01:11.600Z,129.38
2019-02-27T11:03:04.518Z,129.38
2019-02-27T11:04:04.522Z,129.38
2019-02-27T11:05:57.440Z,129.38
2019-02-27T11:06:57.448Z,129.38
2019-02-27T11:08:50.363Z,129.38
2019-02-27T11:09:50.370Z,129.38
2019-02-27T11:11:43.273Z,129.38
2019-02-27T11:12:43.286Z,129.38
2019-02-27T11:14:36.204Z,129.38
2019-02-27T11:15:41.169Z,129.38
2019-02-27T11:17:29.118Z,129.38
2019-02-27T11:18:29.130Z,129.38
2019-02-27T11:20:23.897Z,129.38
2019-02-27T11:21:22.047Z,129.38
2019-02-27T11:23:15.445Z,129.38
2019-02-27T11:24:17.314Z,129.38
2019-02-27T11:26:08.369Z,129.38
2019-02-27T11:27:08.376Z,129.38
2019-02-27T11:29:01.290Z,129.38
2019-02-27T11:30:03.041Z,129.38
2019-02-27T11:31:54.209Z,129.38
2019-02-27T11:32:56.850Z,129.38
2019-02-27T11:34:48.460Z,129.38
2019-02-27T11:35:47.145Z,129.38
2019-02-27T11:37:40.052Z,129.38
2019-02-27T11:38:40.066Z,129.38
2019-02-27T11:40:32.984Z,129.38
2019-02-27T11:41:32.990Z,129.38
2019-02-27T11:43:25.892Z,129.38
2019-02-27T11:44:25.918Z,129.38
2019-02-27T11:46:18.822Z,129.38
2019-02-27T11:47:18.830Z,129.38
2019-02-27T11:49:11.753Z,129.38
2019-02-27T11:50:11.750Z,129.38
2019-02-27T11:52:05.152Z,129.38
2019-02-27T11:53:05.168Z,129.38
2019-02-27T11:54:58.085Z,129.38
2019-02-27T11:55:58.093Z,129.38
2019-02-27T11:57:51.001Z,129.38
2019-02-27T11:58:51.018Z,129.38
2019-02-27T12:00:43.928Z,129.38
2019-02-27T12:01:43.937Z,129.38
2019-02-27T12:03:36.846Z,129.38
2019-02-27T12:04:36.861Z,129.38
2019-02-27T12:06:29.781Z,129.38
2019-02-27T12:07:29.786Z,129.38
2019-02-27T12:09:22.700Z,129.38
2019-02-27T12:10:22.712Z,129.38
2019-02-27T12:12:15.614Z,129.38
2019-02-27T12:13:15.631Z,129.38
2019-02-27T12:15:09.077Z,129.38
2019-02-27T12:16:08.555Z,129.38
2019-02-27T12:18:01.878Z,129.38
2019-02-27T12:19:01.478Z,129.38
2019-02-27T12:20:54.397Z,129.38
2019-02-27T12:21:54.407Z,129.38
2019-02-27T12:23:47.335Z,129.38
2019-02-27T12:24:47.352Z,129.38
2019-02-27T12:26:40.254Z,129.38
2019-02-27T12:27:49.274Z,129.38
2019-02-27T12:29:33.167Z,129.38
2019-02-27T12:30:37.166Z,129.38
2019-02-27T12:32:26.095Z,123.75
2019-02-27T12:33:29.193Z,129.38
2019-02-27T12:35:19.019Z,123.75
2019-02-27T12:36:19.480Z,123.75
2019-02-27T12:38:11.934Z,123.75
2019-02-27T12:39:15.247Z,123.75
2019-02-27T12:41:04.933Z,123.75
2019-02-27T12:42:06.988Z,123.75
2019-02-27T12:43:57.830Z,123.75
2019-02-27T12:44:57.828Z,123.75
2019-02-27T12:46:50.813Z,123.75
2019-02-27T12:47:50.745Z,123.75
2019-02-27T12:49:43.741Z,123.75
2019-02-27T12:50:43.663Z,123.75
2019-02-27T12:52:36.584Z,123.75
2019-02-27T12:53:36.637Z,123.75
2019-02-27T12:55:29.646Z,123.75
2019-02-27T12:56:29.544Z,123.75
2019-02-27T12:58:24.441Z,123.75
2019-02-27T12:59:22.479Z,123.75
2019-02-27T13:01:16.336Z,123.75
2019-02-27T13:02:15.376Z,123.75
2019-02-27T13:04:08.286Z,123.75
2019-02-27T13:05:08.313Z,123.75
2019-02-27T13:07:01.266Z,123.75
2019-02-27T13:08:01.314Z,123.75
2019-02-27T13:09:58.438Z,123.75
2019-02-27T13:10:54.190Z,123.75
2019-02-27T13:12:49.160Z,123.75
2019-02-27T13:13:47.107Z,123.75
2019-02-27T13:15:41.177Z,123.75
2019-02-27T13:16:40.555Z,123.75
2019-02-27T13:18:33.466Z,123.75
2019-02-27T13:19:33.481Z,123.75
2019-02-27T13:21:26.454Z,123.75
2019-02-27T13:22:29.205Z,123.75
2019-02-27T13:24:19.308Z,123.75
2019-02-27T13:25:21.349Z,123.75
2019-02-27T13:27:12.300Z,123.75
2019-02-27T13:28:14.624Z,123.75
2019-02-27T13:30:08.901Z,123.75
2019-02-27T13:31:05.190Z,123.75
2019-02-27T13:33:00.618Z,123.75
2019-02-27T13:33:58.101Z,123.75
2019-02-27T13:35:51.540Z,123.75
2019-02-27T13:36:51.523Z,123.75
2019-02-27T13:38:45.361Z,123.75
2019-02-27T13:39:44.478Z,123.75
2019-02-27T13:41:37.408Z,123.75
2019-02-27T13:42:37.393Z,123.75
2019-02-27T13:44:34.498Z,123.75
2019-02-27T13:45:30.304Z,123.75
2019-02-27T13:47:23.299Z,123.75
2019-02-27T13:48:23.244Z,123.75
2019-02-27T13:50:16.802Z,123.75
2019-02-27T13:51:16.180Z,123.75
2019-02-27T13:53:09.146Z,123.75
2019-02-27T13:54:09.114Z,123.75
2019-02-27T13:56:02.535Z,123.75
2019-02-27T13:57:02.508Z,123.75
2019-02-27T13:58:55.429Z,123.75
2019-02-27T13:59:55.460Z,123.75
2019-02-27T14:01:48.379Z,123.75
2019-02-27T14:02:48.357Z,123.75
2019-02-27T14:04:41.265Z,118.13
2019-02-27T14:05:41.272Z,118.13
2019-02-27T14:07:34.195Z,118.13
2019-02-27T14:08:34.203Z,118.13
2019-02-27T14:10:27.114Z,118.13
2019-02-27T14:11:27.132Z,118.13
2019-02-27T14:13:20.555Z,118.13
2019-02-27T14:14:20.554Z,118.13
2019-02-27T14:16:13.476Z,118.13
2019-02-27T14:17:13.479Z,118.13
2019-02-27T14:19:06.395Z,118.13
2019-02-27T14:20:06.407Z,118.13
2019-02-27T14:21:59.328Z,118.13
2019-02-27T14:22:59.337Z,118.13
2019-02-27T14:24:54.848Z,118.13
2019-02-27T14:25:52.264Z,118.13
2019-02-27T14:27:47.553Z,118.13
2019-02-27T14:28:45.193Z,118.13
2019-02-27T14:30:38.104Z,118.13
2019-02-27T14:31:40.061Z,118.13
2019-02-27T14:33:31.038Z,118.13
2019-02-27T14:34:31.048Z,118.13
2019-02-27T14:36:23.970Z,118.13
2019-02-27T14:37:23.978Z,118.13
2019-02-27T14:39:16.892Z,112.50
2019-02-27T14:40:16.910Z,112.50
2019-02-27T14:42:09.852Z,112.50
2019-02-27T14:43:09.864Z,112.50
2019-02-27T14:45:05.812Z,112.50
2019-02-27T14:46:02.790Z,112.50
2019-02-27T14:47:55.713Z,112.50
2019-02-27T14:48:55.717Z,112.50
2019-02-27T14:50:49.144Z,112.50
2019-02-27T14:51:49.150Z,112.50
2019-02-27T14:53:42.075Z,112.50
2019-02-27T14:54:42.087Z,112.50
2019-02-27T14:56:35.006Z,112.50
2019-02-27T14:57:35.008Z,112.50
2019-02-27T14:59:30.324Z,112.50
2019-02-27T15:00:28.012Z,106.88
2019-02-27T15:02:22.332Z,106.88
2019-02-27T15:03:20.869Z,106.88
2019-02-27T15:05:13.790Z,106.88
2019-02-27T15:06:15.910Z,106.88
2019-02-27T15:08:06.727Z,106.88
2019-02-27T15:09:06.739Z,106.88
2019-02-27T15:10:59.646Z,106.88
2019-02-27T15:11:59.666Z,106.88
2019-02-27T15:13:53.094Z,106.88
2019-02-27T15:14:53.094Z,106.88
2019-02-27T15:16:48.987Z,101.25
2019-02-27T15:17:46.022Z,101.25
2019-02-27T15:19:38.933Z,101.25
2019-02-27T15:20:41.021Z,101.25
2019-02-27T15:22:31.896Z,101.25
2019-02-27T15:23:31.884Z,101.25
2019-02-27T15:25:24.816Z,101.25
2019-02-27T15:26:24.808Z,101.25
2019-02-27T15:28:18.246Z,101.25
2019-02-27T15:29:17.746Z,95.63
2019-02-27T15:31:10.656Z,95.63
2019-02-27T15:32:10.740Z,95.63
2019-02-27T15:34:03.590Z,95.63
2019-02-27T15:35:03.599Z,95.63
2019-02-27T15:36:56.528Z,95.63
2019-02-27T15:37:56.520Z,95.63
2019-02-27T15:39:51.936Z,90.00
2019-02-27T15:40:49.456Z,90.00
2019-02-27T15:42:42.689Z,90.00
2019-02-27T15:43:42.403Z,90.00
2019-02-27T15:45:35.316Z,90.00
2019-02-27T15:46:35.333Z,90.00
2019-02-27T15:48:28.740Z,84.38
2019-02-27T15:49:28.752Z,84.38
2019-02-27T15:51:21.689Z,84.38
2019-02-27T15:52:21.701Z,84.38
2019-02-27T15:54:14.619Z,84.38
2019-02-27T15:55:14.620Z,84.38
2019-02-27T15:57:07.548Z,78.75
2019-02-27T15:58:07.577Z,78.75
2019-02-27T16:00:00.991Z,78.75
2019-02-27T16:01:01.002Z,78.75
2019-02-27T16:02:53.934Z,73.13
2019-02-27T16:03:53.908Z,73.13
2019-02-27T16:05:46.821Z,73.13
2019-02-27T16:06:46.834Z,73.13
2019-02-27T16:08:39.752Z,73.13
2019-02-27T16:09:39.762Z,67.50
2019-02-27T16:11:32.667Z,67.50
2019-02-27T16:12:32.684Z,67.50
2019-02-27T16:14:25.635Z,67.50
2019-02-27T16:15:25.609Z,67.50
2019-02-27T16:17:18.518Z,67.50
2019-02-27T16:18:18.534Z,73.13
2019-02-27T16:20:11.448Z,67.50
2019-02-27T16:21:12.134Z,61.88
2019-02-27T16:23:05.214Z,56.25
2019-02-27T16:24:04.397Z,56.25
2019-02-27T16:25:57.305Z,50.63
2019-02-27T16:27:00.875Z,50.63
2019-02-27T16:28:50.241Z,50.63
2019-02-27T16:29:50.249Z,50.63
2019-02-27T16:31:43.175Z,45.00
2019-02-27T16:32:47.817Z,45.00
2019-02-27T16:34:36.111Z,45.00
2019-02-27T16:35:41.575Z,39.38
2019-02-27T16:37:29.035Z,39.38
2019-02-27T16:38:31.655Z,39.38
2019-02-27T16:40:21.964Z,33.75
2019-02-27T16:41:27.890Z,33.75
2019-02-27T16:43:14.901Z,33.75
2019-02-27T16:44:14.899Z,28.13
2019-02-27T16:46:08.822Z,28.13
2019-02-27T16:47:07.827Z,28.13
2019-02-27T16:49:00.737Z,22.50
2019-02-27T16:50:00.952Z,22.50
2019-02-27T16:51:53.656Z,22.50
2019-02-27T16:52:53.688Z,16.88
2019-02-27T16:54:46.659Z,16.88
2019-02-27T16:55:48.084Z,16.88
2019-02-27T16:57:39.510Z,11.25
2019-02-27T16:58:39.527Z,11.25
2019-02-27T17:00:32.450Z,11.25
2019-02-27T17:01:32.463Z,11.25
2019-02-27T17:03:25.448Z,5.63
2019-02-27T17:04:25.386Z,5.63
2019-02-27T17:06:18.423Z,5.63
2019-02-27T17:07:18.307Z,5.63
2019-02-27T17:09:13.223Z,5.63
2019-02-27T17:10:11.229Z,0.00
2019-02-27T17:12:06.897Z,0.00
2019-02-27T17:13:04.171Z,0.00
2019-02-27T17:14:58.715Z,0.00
2019-02-27T17:15:57.093Z,0.00
2019-02-27T17:17:50.592Z,0.00
2019-02-27T17:18:50.017Z,0.00
2019-02-27T17:20:45.890Z,0.00
2019-02-27T17:21:42.940Z,0.00
2019-02-27T17:23:35.853Z,0.00
2019-02-27T17:24:35.869Z,0.00
2019-02-27T17:26:28.771Z,0.00
2019-02-27T17:27:28.785Z,0.00
2019-02-27T17:29:22.923Z,0.00
2019-02-27T17:30:21.703Z,0.00
2019-02-27T17:32:14.616Z,0.00
2019-02-27T17:33:15.878Z,0.00
2019-02-27T17:35:07.533Z,0.00
2019-02-27T17:36:07.593Z,0.00
2019-02-27T17:38:00.447Z,0.00
2019-02-27T17:39:00.465Z,0.00
2019-02-27T17:40:53.376Z,0.00
2019-02-27T17:41:53.385Z,0.00
2019-02-27T17:43:46.313Z,0.00
2019-02-27T17:44:46.306Z,0.00
2019-02-27T17:46:39.213Z,0.00
2019-02-27T17:47:39.223Z,0.00
2019-02-27T17:49:32.135Z,0.00
2019-02-27T17:50:32.449Z,0.00
2019-02-27T17:52:25.050Z,0.00
2019-02-27T17:53:25.103Z,0.00
2019-02-27T17:55:17.974Z,0.00
2019-02-27T17:56:17.981Z,0.00
2019-02-27T17:58:10.885Z,0.00
2019-02-27T17:59:10.899Z,0.00
2019-02-27T18:01:03.820Z,0.00
2019-02-27T18:02:03.820Z,0.00
2019-02-27T18:03:56.729Z,0.00
2019-02-27T18:04:56.737Z,0.00
2019-02-27T18:06:49.642Z,0.00
2019-02-27T18:07:49.657Z,0.00
2019-02-27T18:09:42.567Z,0.00
2019-02-27T18:10:42.574Z,0.00
2019-02-27T18:12:35.476Z,0.00
2019-02-27T18:13:36.265Z,0.00
2019-02-27T18:15:28.543Z,0.00
2019-02-27T18:16:28.552Z,0.00
2019-02-27T18:18:21.456Z,0.00
2019-02-27T18:19:21.469Z,0.00
2019-02-27T18:21:14.381Z,0.00
2019-02-27T18:22:14.817Z,0.00
2019-02-27T18:24:07.299Z,0.00
2019-02-27T18:25:08.178Z,0.00
2019-02-27T18:27:00.290Z,0.00
2019-02-27T18:28:00.230Z,0.00
2019-02-27T18:29:53.198Z,0.00
2019-02-27T18:30:53.799Z,0.00
2019-02-27T18:32:46.109Z,0.00